sensor_id;sensor_type;location;lat;lon;timestamp;P1;P2;P0
14880;PMS7003;7533;51.278;12.588;2023-03-01T00:03:37;13.75;12.00;8.00
14880;PMS7003;7533;51.278;12.588;2023-03-01T00:08:42;11.75;11.75;7.50
14880;PMS7003;7533;51.278;12.588;2023-03-01T00:13:46;13.75;12.00;7.75
14880;PMS7003;7533;51.278;12.588;2023-03-01T00:18:49;12.25;11.00;7.50
14880;PMS7003;7533;51.278;12.588;2023-03-01T00:23:54;11.25;10.50;7.50
14880;PMS7003;7533;51.278;12.588;2023-03-01T00:28:58;11.50;10.75;7.00
14880;PMS7003;7533;51.278;12.588;2023-03-01T00:34:02;12.00;11.00;7.00
14880;PMS7003;7533;51.278;12.588;2023-03-01T00:39:10;12.50;12.50;7.75
14880;PMS7003;7533;51.278;12.588;2023-03-01T00:44:14;13.25;12.00;7.00
14880;PMS7003;7533;51.278;12.588;2023-03-01T00:49:17;12.75;11.75;7.50
14880;PMS7003;7533;51.278;12.588;2023-03-01T00:54:21;11.75;11.25;6.00
14880;PMS7003;7533;51.278;12.588;2023-03-01T00:59:24;11.75;10.25;6.25
14880;PMS7003;7533;51.278;12.588;2023-03-01T01:04:27;12.50;10.75;7.00
14880;PMS7003;7533;51.278;12.588;2023-03-01T01:09:32;12.00;11.50;6.75
14880;PMS7003;7533;51.278;12.588;2023-03-01T01:14:35;10.00;8.25;7.00
14880;PMS7003;7533;51.278;12.588;2023-03-01T01:19:38;11.75;9.75;6.00
14880;PMS7003;7533;51.278;12.588;2023-03-01T01:24:42;10.00;9.75;7.00
14880;PMS7003;7533;51.278;12.588;2023-03-01T01:29:45;11.75;10.25;6.00
14880;PMS7003;7533;51.278;12.588;2023-03-01T01:34:48;9.50;9.50;6.00
14880;PMS7003;7533;51.278;12.588;2023-03-01T01:39:52;10.25;9.25;7.50
14880;PMS7003;7533;51.278;12.588;2023-03-01T01:50:41;8.75;7.75;6.00
14880;PMS7003;7533;51.278;12.588;2023-03-01T01:55:48;9.25;9.25;6.00
14880;PMS7003;7533;51.278;12.588;2023-03-01T02:00:55;11.50;10.00;6.25
14880;PMS7003;7533;51.278;12.588;2023-03-01T02:06:00;11.50;9.25;6.25
14880;PMS7003;7533;51.278;12.588;2023-03-01T02:11:08;8.50;8.50;5.75
14880;PMS7003;7533;51.278;12.588;2023-03-01T02:16:15;11.75;10.00;5.50
14880;PMS7003;7533;51.278;12.588;2023-03-01T02:21:30;10.00;10.00;7.00
14880;PMS7003;7533;51.278;12.588;2023-03-01T02:26:45;9.75;7.75;5.50
14880;PMS7003;7533;51.278;12.588;2023-03-01T02:31:52;12.00;8.75;5.50
14880;PMS7003;7533;51.278;12.588;2023-03-01T02:37:01;8.75;8.75;5.50
14880;PMS7003;7533;51.278;12.588;2023-03-01T02:42:05;9.25;7.50;4.75
14880;PMS7003;7533;51.278;12.588;2023-03-01T02:47:10;11.75;9.25;6.50
14880;PMS7003;7533;51.278;12.588;2023-03-01T02:52:20;8.00;8.00;6.00
14880;PMS7003;7533;51.278;12.588;2023-03-01T02:57:43;11.00;9.25;5.00
14880;PMS7003;7533;51.278;12.588;2023-03-01T03:02:50;8.00;8.00;6.00
14880;PMS7003;7533;51.278;12.588;2023-03-01T03:07:58;8.25;8.25;6.00
14880;PMS7003;7533;51.278;12.588;2023-03-01T03:13:06;8.25;8.25;5.25
14880;PMS7003;7533;51.278;12.588;2023-03-01T03:18:13;10.50;10.00;8.00
14880;PMS7003;7533;51.278;12.588;2023-03-01T03:23:18;11.00;10.00;6.00
14880;PMS7003;7533;51.278;12.588;2023-03-01T03:28:21;10.25;8.50;5.00
14880;PMS7003;7533;51.278;12.588;2023-03-01T03:33:25;9.50;8.50;5.75
14880;PMS7003;7533;51.278;12.588;2023-03-01T03:38:28;7.50;7.50;4.75
14880;PMS7003;7533;51.278;12.588;2023-03-01T03:43:32;10.75;8.25;5.75
14880;PMS7003;7533;51.278;12.588;2023-03-01T03:48:39;6.75;6.75;4.25
14880;PMS7003;7533;51.278;12.588;2023-03-01T03:53:43;9.50;9.00;5.75
14880;PMS7003;7533;51.278;12.588;2023-03-01T03:58:46;10.50;9.00;6.00
14880;PMS7003;7533;51.278;12.588;2023-03-01T04:03:50;8.00;7.00;5.50
14880;PMS7003;7533;51.278;12.588;2023-03-01T04:08:55;8.25;8.00;5.00
14880;PMS7003;7533;51.278;12.588;2023-03-01T04:14:01;9.75;9.75;6.50
14880;PMS7003;7533;51.278;12.588;2023-03-01T04:19:06;9.00;9.00;5.75
14880;PMS7003;7533;51.278;12.588;2023-03-01T04:24:10;11.75;9.75;6.75
14880;PMS7003;7533;51.278;12.588;2023-03-01T04:29:13;7.25;7.25;5.00
14880;PMS7003;7533;51.278;12.588;2023-03-01T04:34:17;8.00;7.50;5.00
14880;PMS7003;7533;51.278;12.588;2023-03-01T04:39:20;6.00;6.00;4.25
14880;PMS7003;7533;51.278;12.588;2023-03-01T04:44:23;7.25;7.00;4.00
14880;PMS7003;7533;51.278;12.588;2023-03-01T04:49:27;6.50;6.25;4.50
14880;PMS7003;7533;51.278;12.588;2023-03-01T04:54:31;7.75;5.75;4.25
14880;PMS7003;7533;51.278;12.588;2023-03-01T04:59:34;8.50;8.25;4.75
14880;PMS7003;7533;51.278;12.588;2023-03-01T05:04:39;9.00;6.25;4.00
14880;PMS7003;7533;51.278;12.588;2023-03-01T05:09:42;7.75;7.00;5.00
14880;PMS7003;7533;51.278;12.588;2023-03-01T05:14:45;7.50;6.75;5.00
14880;PMS7003;7533;51.278;12.588;2023-03-01T05:19:49;8.50;7.75;4.75
14880;PMS7003;7533;51.278;12.588;2023-03-01T05:24:52;7.50;7.00;6.00
14880;PMS7003;7533;51.278;12.588;2023-03-01T05:29:57;7.25;7.25;5.75
14880;PMS7003;7533;51.278;12.588;2023-03-01T05:35:01;7.00;6.25;4.00
14880;PMS7003;7533;51.278;12.588;2023-03-01T05:40:05;7.00;7.00;5.00
14880;PMS7003;7533;51.278;12.588;2023-03-01T05:45:09;7.00;6.00;4.75
14880;PMS7003;7533;51.278;12.588;2023-03-01T05:50:15;8.50;8.00;5.00
14880;PMS7003;7533;51.278;12.588;2023-03-01T05:55:21;8.25;8.00;5.00
14880;PMS7003;7533;51.278;12.588;2023-03-01T06:00:24;7.50;6.25;4.00
14880;PMS7003;7533;51.278;12.588;2023-03-01T06:05:29;7.25;7.25;4.25
14880;PMS7003;7533;51.278;12.588;2023-03-01T06:10:32;7.75;6.00;4.00
14880;PMS7003;7533;51.278;12.588;2023-03-01T06:15:35;8.75;7.75;3.75
14880;PMS7003;7533;51.278;12.588;2023-03-01T06:20:39;7.50;6.50;4.00
14880;PMS7003;7533;51.278;12.588;2023-03-01T06:25:42;6.50;6.50;4.50
14880;PMS7003;7533;51.278;12.588;2023-03-01T06:30:44;7.75;6.25;4.25
14880;PMS7003;7533;51.278;12.588;2023-03-01T06:35:48;8.50;7.50;4.75
14880;PMS7003;7533;51.278;12.588;2023-03-01T06:40:52;6.50;5.75;4.75
14880;PMS7003;7533;51.278;12.588;2023-03-01T06:45:57;8.25;7.25;5.50
14880;PMS7003;7533;51.278;12.588;2023-03-01T06:51:02;10.75;6.50;4.50
14880;PMS7003;7533;51.278;12.588;2023-03-01T06:56:05;8.50;7.00;4.00
14880;PMS7003;7533;51.278;12.588;2023-03-01T07:01:08;8.25;7.75;4.75
14880;PMS7003;7533;51.278;12.588;2023-03-01T07:06:13;6.75;6.75;4.75
14880;PMS7003;7533;51.278;12.588;2023-03-01T07:11:15;8.00;7.50;4.00
14880;PMS7003;7533;51.278;12.588;2023-03-01T07:16:18;10.25;8.75;5.50
14880;PMS7003;7533;51.278;12.588;2023-03-01T07:21:23;8.00;7.00;4.50
14880;PMS7003;7533;51.278;12.588;2023-03-01T07:26:25;9.50;8.00;5.00
14880;PMS7003;7533;51.278;12.588;2023-03-01T07:31:29;6.00;5.50;3.00
14880;PMS7003;7533;51.278;12.588;2023-03-01T07:36:33;7.50;7.00;5.00
14880;PMS7003;7533;51.278;12.588;2023-03-01T07:41:37;9.00;8.75;4.25
14880;PMS7003;7533;51.278;12.588;2023-03-01T07:46:40;33.40;30.00;20.00
14880;PMS7003;7533;51.278;12.588;2023-03-01T07:51:44;40.00;34.00;23.00
14880;PMS7003;7533;51.278;12.588;2023-03-01T07:56:47;38.20;34.20;23.00
14880;PMS7003;7533;51.278;12.588;2023-03-01T08:01:49;33.20;25.60;18.60
14880;PMS7003;7533;51.278;12.588;2023-03-01T08:06:54;33.40;27.80;18.00
14880;PMS7003;7533;51.278;12.588;2023-03-01T08:11:57;26.20;24.20;16.00
14880;PMS7003;7533;51.278;12.588;2023-03-01T08:17:01;26.60;23.60;14.80
14880;PMS7003;7533;51.278;12.588;2023-03-01T08:22:06;24.00;21.25;15.00
14880;PMS7003;7533;51.278;12.588;2023-03-01T08:27:09;24.75;21.00;14.00
14880;PMS7003;7533;51.278;12.588;2023-03-01T08:32:13;19.50;18.50;12.25
14880;PMS7003;7533;51.278;12.588;2023-03-01T08:37:17;23.00;22.25;13.25
14880;PMS7003;7533;51.278;12.588;2023-03-01T08:42:20;22.50;18.75;12.50
14880;PMS7003;7533;51.278;12.588;2023-03-01T08:47:23;18.00;17.50;12.25
14880;PMS7003;7533;51.278;12.588;2023-03-01T08:52:28;17.75;17.00;12.25
14880;PMS7003;7533;51.278;12.588;2023-03-01T08:57:31;18.00;18.00;12.75
14880;PMS7003;7533;51.278;12.588;2023-03-01T09:02:34;20.00;19.50;11.50
14880;PMS7003;7533;51.278;12.588;2023-03-01T09:07:38;22.00;17.25;11.75
14880;PMS7003;7533;51.278;12.588;2023-03-01T09:12:41;19.50;17.75;12.00
14880;PMS7003;7533;51.278;12.588;2023-03-01T09:17:44;17.50;17.25;11.25
14880;PMS7003;7533;51.278;12.588;2023-03-01T09:22:49;16.75;16.75;11.00
14880;PMS7003;7533;51.278;12.588;2023-03-01T09:27:52;17.25;16.00;11.00
14880;PMS7003;7533;51.278;12.588;2023-03-01T09:32:56;17.50;16.50;11.50
14880;PMS7003;7533;51.278;12.588;2023-03-01T09:38:00;17.75;17.75;11.00
14880;PMS7003;7533;51.278;12.588;2023-03-01T09:43:05;15.00;15.00;10.75
14880;PMS7003;7533;51.278;12.588;2023-03-01T09:48:18;17.75;15.00;11.00
14880;PMS7003;7533;51.278;12.588;2023-03-01T09:53:27;16.75;13.25;9.75
14880;PMS7003;7533;51.278;12.588;2023-03-01T09:58:41;18.75;15.00;11.00
14880;PMS7003;7533;51.278;12.588;2023-03-01T10:03:58;16.25;15.00;10.25
14880;PMS7003;7533;51.278;12.588;2023-03-01T10:09:13;16.50;16.50;10.50
14880;PMS7003;7533;51.278;12.588;2023-03-01T10:14:23;17.50;17.25;11.25
14880;PMS7003;7533;51.278;12.588;2023-03-01T10:19:33;20.00;18.25;11.50
14880;PMS7003;7533;51.278;12.588;2023-03-01T10:24:42;16.25;16.25;10.00
14880;PMS7003;7533;51.278;12.588;2023-03-01T10:29:47;15.50;14.00;8.75
14880;PMS7003;7533;51.278;12.588;2023-03-01T10:34:55;18.00;14.75;9.75
14880;PMS7003;7533;51.278;12.588;2023-03-01T10:40:02;18.25;18.00;11.00
14880;PMS7003;7533;51.278;12.588;2023-03-01T10:45:16;17.75;14.00;10.00
14880;PMS7003;7533;51.278;12.588;2023-03-01T10:50:29;16.50;14.75;9.75
14880;PMS7003;7533;51.278;12.588;2023-03-01T10:55:34;13.25;13.25;8.25
14880;PMS7003;7533;51.278;12.588;2023-03-01T11:00:49;14.00;13.00;8.75
14880;PMS7003;7533;51.278;12.588;2023-03-01T11:05:55;14.00;13.00;9.00
14880;PMS7003;7533;51.278;12.588;2023-03-01T11:11:07;10.75;10.75;8.00
14880;PMS7003;7533;51.278;12.588;2023-03-01T11:16:22;14.00;12.25;9.00
14880;PMS7003;7533;51.278;12.588;2023-03-01T11:21:31;14.25;13.25;9.50
14880;PMS7003;7533;51.278;12.588;2023-03-01T11:26:38;18.25;12.50;8.25
14880;PMS7003;7533;51.278;12.588;2023-03-01T11:31:43;12.00;12.00;8.00
14880;PMS7003;7533;51.278;12.588;2023-03-01T11:36:58;13.75;12.25;7.00
14880;PMS7003;7533;51.278;12.588;2023-03-01T11:42:12;14.25;13.50;9.00
14880;PMS7003;7533;51.278;12.588;2023-03-01T11:47:26;11.75;10.75;7.50
14880;PMS7003;7533;51.278;12.588;2023-03-01T11:52:46;12.00;10.50;7.50
14880;PMS7003;7533;51.278;12.588;2023-03-01T11:58:04;13.75;12.25;9.00
14880;PMS7003;7533;51.278;12.588;2023-03-01T12:03:26;12.25;10.75;7.50
14880;PMS7003;7533;51.278;12.588;2023-03-01T12:08:35;27.60;23.00;16.20
14880;PMS7003;7533;51.278;12.588;2023-03-01T12:13:49;29.20;27.20;15.40
14880;PMS7003;7533;51.278;12.588;2023-03-01T12:19:09;26.00;25.20;16.60
14880;PMS7003;7533;51.278;12.588;2023-03-01T12:30:19;46.40;36.60;22.00
14880;PMS7003;7533;51.278;12.588;2023-03-01T12:35:33;98.80;86.40;46.60
14880;PMS7003;7533;51.278;12.588;2023-03-01T12:40:45;233.75;194.25;104.50
14880;PMS7003;7533;51.278;12.588;2023-03-01T12:46:10;199.40;175.20;93.00
14880;PMS7003;7533;51.278;12.588;2023-03-01T12:51:24;238.00;204.33;106.00
14880;PMS7003;7533;51.278;12.588;2023-03-01T12:56:32;221.40;183.00;97.00
14880;PMS7003;7533;51.278;12.588;2023-03-01T13:01:42;261.67;219.67;112.00
14880;PMS7003;7533;51.278;12.588;2023-03-01T13:06:55;281.00;233.33;121.67
14880;PMS7003;7533;51.278;12.588;2023-03-01T13:17:44;294.67;242.00;123.00
14880;PMS7003;7533;51.278;12.588;2023-03-01T13:22:48;243.33;202.67;97.67
14880;PMS7003;7533;51.278;12.588;2023-03-01T13:33:45;207.80;175.80;86.00
14880;PMS7003;7533;51.278;12.588;2023-03-01T13:38:55;190.40;161.20;82.80
14880;PMS7003;7533;51.278;12.588;2023-03-01T13:43:59;184.60;153.80;78.00
14880;PMS7003;7533;51.278;12.588;2023-03-01T13:49:04;177.00;154.20;79.00
14880;PMS7003;7533;51.278;12.588;2023-03-01T13:54:09;176.40;143.60;73.20
14880;PMS7003;7533;51.278;12.588;2023-03-01T13:59:15;179.20;143.80;73.40
14880;PMS7003;7533;51.278;12.588;2023-03-01T14:04:22;166.00;138.60;67.80
14880;PMS7003;7533;51.278;12.588;2023-03-01T14:09:27;160.20;136.00;69.20
14880;PMS7003;7533;51.278;12.588;2023-03-01T14:14:38;114.20;94.00;50.00
14880;PMS7003;7533;51.278;12.588;2023-03-01T14:19:48;121.20;102.40;55.00
14880;PMS7003;7533;51.278;12.588;2023-03-01T14:24:58;44.20;36.00;21.20
14880;PMS7003;7533;51.278;12.588;2023-03-01T14:30:03;45.60;34.80;22.40
14880;PMS7003;7533;51.278;12.588;2023-03-01T14:35:20;34.40;25.80;15.40
14880;PMS7003;7533;51.278;12.588;2023-03-01T14:40:26;28.50;23.00;14.25
14880;PMS7003;7533;51.278;12.588;2023-03-01T14:45:31;25.25;23.00;14.00
14880;PMS7003;7533;51.278;12.588;2023-03-01T14:50:35;27.25;24.50;15.75
14880;PMS7003;7533;51.278;12.588;2023-03-01T14:55:44;24.50;23.25;14.25
14880;PMS7003;7533;51.278;12.588;2023-03-01T15:00:50;26.25;22.00;14.50
14880;PMS7003;7533;51.278;12.588;2023-03-01T15:05:56;26.50;22.50;14.75
14880;PMS7003;7533;51.278;12.588;2023-03-01T15:11:01;25.20;22.40;13.40
14880;PMS7003;7533;51.278;12.588;2023-03-01T15:16:09;25.75;21.00;14.00
14880;PMS7003;7533;51.278;12.588;2023-03-01T15:21:17;25.50;22.75;12.75
14880;PMS7003;7533;51.278;12.588;2023-03-01T15:26:25;56.60;45.40;27.40
14880;PMS7003;7533;51.278;12.588;2023-03-01T15:31:32;230.25;196.25;100.75
14880;PMS7003;7533;51.278;12.588;2023-03-01T15:36:42;346.00;274.75;130.25
14880;PMS7003;7533;51.278;12.588;2023-03-01T15:41:47;161.40;137.20;70.80
14880;PMS7003;7533;51.278;12.588;2023-03-01T15:46:51;221.00;187.00;92.25
14880;PMS7003;7533;51.278;12.588;2023-03-01T15:51:55;286.67;235.00;109.67
14880;PMS7003;7533;51.278;12.588;2023-03-01T15:56:58;390.25;312.00;149.25
14880;PMS7003;7533;51.278;12.588;2023-03-01T16:02:01;69.60;50.20;31.00
14880;PMS7003;7533;51.278;12.588;2023-03-01T16:07:05;51.20;40.60;23.60
14880;PMS7003;7533;51.278;12.588;2023-03-01T16:12:09;519.25;405.50;173.50
14880;PMS7003;7533;51.278;12.588;2023-03-01T16:17:17;454.50;362.00;157.25
14880;PMS7003;7533;51.278;12.588;2023-03-01T16:22:21;515.33;415.33;173.00
14880;PMS7003;7533;51.278;12.588;2023-03-01T16:27:26;573.00;447.00;180.25
14880;PMS7003;7533;51.278;12.588;2023-03-01T16:32:29;588.40;464.20;185.80
14880;PMS7003;7533;51.278;12.588;2023-03-01T16:37:33;604.25;473.00;184.50
14880;PMS7003;7533;51.278;12.588;2023-03-01T16:42:37;345.33;265.00;116.00
14880;PMS7003;7533;51.278;12.588;2023-03-01T16:47:41;302.33;237.00;108.00
14880;PMS7003;7533;51.278;12.588;2023-03-01T16:52:46;327.00;251.67;109.67
14880;PMS7003;7533;51.278;12.588;2023-03-01T16:57:48;324.33;261.67;106.67
14880;PMS7003;7533;51.278;12.588;2023-03-01T17:02:53;306.00;244.67;108.67
14880;PMS7003;7533;51.278;12.588;2023-03-01T17:07:57;300.50;229.25;104.75
14880;PMS7003;7533;51.278;12.588;2023-03-01T17:13:01;280.00;224.33;98.33
14880;PMS7003;7533;51.278;12.588;2023-03-01T17:18:04;285.00;231.33;98.00
14880;PMS7003;7533;51.278;12.588;2023-03-01T17:23:08;273.67;223.00;95.33
14880;PMS7003;7533;51.278;12.588;2023-03-01T17:28:12;270.33;214.33;96.67
14880;PMS7003;7533;51.278;12.588;2023-03-01T17:33:16;260.80;209.40;89.60
14880;PMS7003;7533;51.278;12.588;2023-03-01T17:38:20;253.60;202.40;89.00
14880;PMS7003;7533;51.278;12.588;2023-03-01T17:43:23;241.60;196.20;90.40
14880;PMS7003;7533;51.278;12.588;2023-03-01T17:48:26;236.40;186.40;85.00
14880;PMS7003;7533;51.278;12.588;2023-03-01T17:53:30;223.40;185.80;84.80
14880;PMS7003;7533;51.278;12.588;2023-03-01T17:58:33;225.40;182.40;81.00
14880;PMS7003;7533;51.278;12.588;2023-03-01T18:03:36;218.40;175.40;79.40
14880;PMS7003;7533;51.278;12.588;2023-03-01T18:08:41;222.00;172.80;77.80
14880;PMS7003;7533;51.278;12.588;2023-03-01T18:13:45;215.40;176.80;81.00
14880;PMS7003;7533;51.278;12.588;2023-03-01T18:18:51;191.00;159.20;76.00
14880;PMS7003;7533;51.278;12.588;2023-03-01T18:23:56;206.00;168.00;79.80
14880;PMS7003;7533;51.278;12.588;2023-03-01T18:29:00;203.40;163.60;78.40
14880;PMS7003;7533;51.278;12.588;2023-03-01T18:34:04;206.60;165.40;75.40
14880;PMS7003;7533;51.278;12.588;2023-03-01T18:39:09;195.20;159.80;75.00
14880;PMS7003;7533;51.278;12.588;2023-03-01T18:44:12;194.20;160.80;75.00
14880;PMS7003;7533;51.278;12.588;2023-03-01T18:49:15;187.60;156.80;70.00
14880;PMS7003;7533;51.278;12.588;2023-03-01T18:54:19;187.80;153.60;71.80
14880;PMS7003;7533;51.278;12.588;2023-03-01T18:59:22;188.80;154.40;69.20
14880;PMS7003;7533;51.278;12.588;2023-03-01T19:04:25;182.40;149.00;69.20
14880;PMS7003;7533;51.278;12.588;2023-03-01T19:09:29;185.00;152.40;71.40
14880;PMS7003;7533;51.278;12.588;2023-03-01T19:14:32;175.00;146.60;68.80
14880;PMS7003;7533;51.278;12.588;2023-03-01T19:19:35;186.40;152.80;70.60
14880;PMS7003;7533;51.278;12.588;2023-03-01T19:24:39;187.20;145.00;64.20
14880;PMS7003;7533;51.278;12.588;2023-03-01T19:29:42;169.80;141.20;67.00
14880;PMS7003;7533;51.278;12.588;2023-03-01T19:34:45;171.40;138.40;67.60
14880;PMS7003;7533;51.278;12.588;2023-03-01T19:39:49;175.80;146.80;65.40
14880;PMS7003;7533;51.278;12.588;2023-03-01T19:44:53;164.20;129.40;62.20
14880;PMS7003;7533;51.278;12.588;2023-03-01T19:49:56;170.80;140.40;64.00
14880;PMS7003;7533;51.278;12.588;2023-03-01T19:55:00;162.40;135.20;61.60
14880;PMS7003;7533;51.278;12.588;2023-03-01T20:00:10;157.40;124.40;60.20
14880;PMS7003;7533;51.278;12.588;2023-03-01T20:05:15;163.40;132.00;61.80
14880;PMS7003;7533;51.278;12.588;2023-03-01T20:10:19;149.60;124.40;57.80
14880;PMS7003;7533;51.278;12.588;2023-03-01T20:15:22;143.00;122.20;58.00
14880;PMS7003;7533;51.278;12.588;2023-03-01T20:20:25;151.20;119.00;58.40
14880;PMS7003;7533;51.278;12.588;2023-03-01T20:25:29;141.40;118.80;58.00
14880;PMS7003;7533;51.278;12.588;2023-03-01T20:30:32;142.80;113.00;51.20
14880;PMS7003;7533;51.278;12.588;2023-03-01T20:35:34;138.60;114.00;54.60
14880;PMS7003;7533;51.278;12.588;2023-03-01T20:40:39;144.40;118.20;57.00
14880;PMS7003;7533;51.278;12.588;2023-03-01T20:45:42;138.40;112.00;52.60
14880;PMS7003;7533;51.278;12.588;2023-03-01T20:50:45;128.00;108.40;51.60
14880;PMS7003;7533;51.278;12.588;2023-03-01T20:55:49;129.60;109.60;52.00
14880;PMS7003;7533;51.278;12.588;2023-03-01T21:00:51;128.20;108.80;51.20
14880;PMS7003;7533;51.278;12.588;2023-03-01T21:05:57;126.00;102.20;49.00
14880;PMS7003;7533;51.278;12.588;2023-03-01T21:11:04;115.40;99.60;47.20
14880;PMS7003;7533;51.278;12.588;2023-03-01T21:16:10;119.80;99.40;48.80
14880;PMS7003;7533;51.278;12.588;2023-03-01T21:21:15;112.00;97.00;44.60
14880;PMS7003;7533;51.278;12.588;2023-03-01T21:26:21;119.20;97.40;46.40
14880;PMS7003;7533;51.278;12.588;2023-03-01T21:31:27;117.20;96.40;47.80
14880;PMS7003;7533;51.278;12.588;2023-03-01T21:36:32;112.80;93.40;45.40
14880;PMS7003;7533;51.278;12.588;2023-03-01T21:41:38;110.60;89.80;43.80
14880;PMS7003;7533;51.278;12.588;2023-03-01T21:46:41;108.80;90.20;41.00
14880;PMS7003;7533;51.278;12.588;2023-03-01T21:51:44;102.60;82.60;41.40
14880;PMS7003;7533;51.278;12.588;2023-03-01T21:56:49;106.80;84.20;41.20
14880;PMS7003;7533;51.278;12.588;2023-03-01T22:01:52;102.60;83.00;39.20
14880;PMS7003;7533;51.278;12.588;2023-03-01T22:06:54;94.40;77.00;37.60
14880;PMS7003;7533;51.278;12.588;2023-03-01T22:11:59;99.60;84.60;41.00
14880;PMS7003;7533;51.278;12.588;2023-03-01T22:17:03;94.20;80.20;39.00
14880;PMS7003;7533;51.278;12.588;2023-03-01T22:22:05;88.60;76.60;38.60
14880;PMS7003;7533;51.278;12.588;2023-03-01T22:27:10;101.60;83.00;39.20
14880;PMS7003;7533;51.278;12.588;2023-03-01T22:32:12;92.60;76.80;37.60
14880;PMS7003;7533;51.278;12.588;2023-03-01T22:37:15;95.00;76.00;36.20
14880;PMS7003;7533;51.278;12.588;2023-03-01T22:42:20;89.60;75.00;36.40
14880;PMS7003;7533;51.278;12.588;2023-03-01T22:47:22;93.20;78.40;38.60
14880;PMS7003;7533;51.278;12.588;2023-03-01T22:52:25;84.00;72.20;36.20
14880;PMS7003;7533;51.278;12.588;2023-03-01T22:57:29;90.00;75.20;36.40
14880;PMS7003;7533;51.278;12.588;2023-03-01T23:02:32;83.60;71.20;34.60
14880;PMS7003;7533;51.278;12.588;2023-03-01T23:07:36;88.60;74.00;34.20
14880;PMS7003;7533;51.278;12.588;2023-03-01T23:12:41;82.40;69.40;35.20
14880;PMS7003;7533;51.278;12.588;2023-03-01T23:17:43;85.00;69.20;33.00
14880;PMS7003;7533;51.278;12.588;2023-03-01T23:22:46;84.40;67.60;34.00
14880;PMS7003;7533;51.278;12.588;2023-03-01T23:27:50;76.60;66.80;32.20
14880;PMS7003;7533;51.278;12.588;2023-03-01T23:32:53;75.00;60.20;33.00
14880;PMS7003;7533;51.278;12.588;2023-03-01T23:38:00;86.60;69.60;32.80
14880;PMS7003;7533;51.278;12.588;2023-03-01T23:43:04;77.40;66.20;32.60
14880;PMS7003;7533;51.278;12.588;2023-03-01T23:48:08;77.60;62.20;33.00
14880;PMS7003;7533;51.278;12.588;2023-03-01T23:53:13;74.60;60.40;31.00
14880;PMS7003;7533;51.278;12.588;2023-03-01T23:58:19;76.00;62.60;31.80
